createdAt,value
2019-02-02T00:00:59.343Z,28.10
2019-02-02T00:04:02.157Z,28.33
2019-02-02T00:07:04.781Z,27.67
2019-02-02T00:10:08.004Z,27.77
2019-02-02T00:13:10.722Z,25.47
2019-02-02T00:16:13.253Z,25.20
2019-02-02T00:19:15.913Z,27.50
2019-02-02T00:22:18.542Z,25.67
2019-02-02T00:25:21.216Z,24.77
2019-02-02T00:28:23.903Z,26.07
2019-02-02T00:31:26.497Z,25.50
2019-02-02T00:34:29.202Z,25.40
2019-02-02T00:37:31.788Z,25.90
2019-02-02T00:40:34.480Z,28.13
2019-02-02T00:43:38.482Z,26.23
2019-02-02T00:46:41.478Z,27.37
2019-02-02T00:49:44.114Z,28.87
2019-02-02T00:52:46.927Z,28.73
2019-02-02T00:55:49.613Z,29.17
2019-02-02T00:58:52.246Z,28.80
2019-02-02T01:01:54.928Z,28.27
2019-02-02T01:04:57.571Z,26.90
2019-02-02T01:08:00.273Z,30.27
2019-02-02T01:11:03.081Z,29.47
2019-02-02T01:14:05.689Z,28.67
2019-02-02T01:17:08.502Z,28.70
2019-02-02T01:20:11.303Z,27.50
2019-02-02T01:23:13.822Z,28.80
2019-02-02T01:26:16.421Z,28.97
2019-02-02T01:29:19.075Z,29.17
2019-02-02T01:32:21.728Z,27.00
2019-02-02T01:35:24.361Z,27.50
2019-02-02T01:38:26.967Z,28.53
2019-02-02T01:41:29.685Z,29.00
2019-02-02T01:44:32.406Z,28.40
2019-02-02T01:47:35.149Z,29.23
2019-02-02T01:50:37.793Z,27.83
2019-02-02T01:53:40.427Z,28.87
2019-02-02T01:56:42.974Z,29.33
2019-02-02T01:59:45.667Z,28.17
2019-02-02T02:02:48.309Z,28.93
2019-02-02T02:05:50.997Z,27.17
2019-02-02T02:08:53.826Z,29.37
2019-02-02T02:11:57.641Z,28.53
2019-02-02T02:15:00.322Z,27.97
2019-02-02T02:18:03.146Z,28.97
2019-02-02T02:21:05.913Z,28.17
2019-02-02T02:24:08.576Z,29.20
2019-02-02T02:27:11.241Z,29.40
2019-02-02T02:30:21.434Z,28.23
2019-02-02T02:33:24.065Z,27.83
2019-02-02T02:36:26.706Z,30.67
2019-02-02T02:39:29.311Z,28.97
2019-02-02T02:42:32.046Z,29.03
2019-02-02T02:45:34.813Z,28.07
2019-02-02T02:48:37.585Z,29.10
2019-02-02T02:51:40.227Z,30.17
2019-02-02T02:54:42.907Z,27.17
2019-02-02T02:57:45.918Z,29.03
2019-02-02T03:00:48.684Z,28.97
2019-02-02T03:03:51.334Z,28.97
2019-02-02T03:06:53.901Z,30.60
2019-02-02T03:09:56.487Z,28.80
2019-02-02T03:12:59.173Z,28.43
2019-02-02T03:16:01.776Z,29.30
2019-02-02T03:19:04.502Z,28.57
2019-02-02T03:22:07.137Z,28.03
2019-02-02T03:25:12.150Z,28.10
2019-02-02T03:28:14.733Z,29.10
2019-02-02T03:31:17.294Z,28.37
2019-02-02T03:34:19.903Z,27.63
2019-02-02T03:37:23.555Z,29.50
2019-02-02T03:40:26.103Z,28.83
2019-02-02T03:43:28.690Z,28.57
2019-02-02T03:46:31.296Z,29.10
2019-02-02T03:49:33.912Z,27.17
2019-02-02T03:52:36.566Z,27.07
2019-02-02T03:55:39.190Z,28.00
2019-02-02T03:58:42.523Z,28.43
2019-02-02T04:01:45.115Z,28.10
2019-02-02T04:04:47.801Z,27.87
2019-02-02T04:07:50.349Z,28.40
2019-02-02T04:10:52.920Z,28.40
2019-02-02T04:13:55.522Z,28.30
2019-02-02T04:16:58.155Z,26.97
2019-02-02T04:20:00.871Z,28.20
2019-02-02T04:23:03.516Z,29.07
2019-02-02T04:26:06.177Z,27.30
2019-02-02T04:29:17.638Z,29.97
2019-02-02T04:32:13.427Z,28.97
2019-02-02T04:35:16.095Z,29.40
2019-02-02T04:38:18.666Z,29.67
2019-02-02T04:41:21.285Z,28.33
2019-02-02T04:44:23.955Z,28.13
2019-02-02T04:47:26.671Z,28.17
2019-02-02T04:50:29.255Z,28.87
2019-02-02T04:53:31.890Z,28.90
2019-02-02T04:56:34.561Z,30.13
2019-02-02T04:59:37.276Z,29.57
2019-02-02T05:02:39.852Z,28.13
2019-02-02T05:05:42.440Z,28.80
2019-02-02T05:08:45.001Z,27.70
2019-02-02T05:11:47.653Z,28.20
2019-02-02T05:14:50.216Z,29.97
2019-02-02T05:17:52.871Z,27.77
2019-02-02T05:20:55.481Z,29.03
2019-02-02T05:23:58.162Z,28.70
2019-02-02T05:27:00.766Z,28.27
2019-02-02T05:30:07.457Z,29.67
2019-02-02T05:33:09.991Z,28.87
2019-02-02T05:36:12.604Z,30.43
2019-02-02T05:39:15.167Z,28.70
2019-02-02T05:42:17.797Z,29.40
2019-02-02T05:45:21.412Z,29.67
2019-02-02T05:48:24.451Z,28.60
2019-02-02T05:51:27.089Z,29.80
2019-02-02T05:54:29.800Z,29.93
2019-02-02T05:57:32.506Z,28.93
2019-02-02T06:00:41.713Z,27.77
2019-02-02T06:03:44.323Z,28.93
2019-02-02T06:06:46.905Z,28.50
2019-02-02T06:09:49.565Z,28.07
2019-02-02T06:12:52.311Z,29.27
2019-02-02T06:15:54.917Z,27.93
2019-02-02T06:18:57.523Z,29.50
2019-02-02T06:22:00.226Z,28.90
2019-02-02T06:25:03.412Z,28.17
2019-02-02T06:28:06.182Z,28.50
2019-02-02T06:31:08.762Z,29.70
2019-02-02T06:34:11.371Z,29.70
2019-02-02T06:37:13.985Z,29.40
2019-02-02T06:40:16.958Z,30.50
2019-02-02T06:43:19.686Z,29.23
2019-02-02T06:46:22.266Z,28.30
2019-02-02T06:49:24.911Z,29.30
2019-02-02T06:52:27.631Z,30.43
2019-02-02T06:55:30.272Z,29.77
2019-02-02T06:58:32.916Z,28.47
2019-02-02T07:01:35.495Z,28.63
2019-02-02T07:04:38.065Z,29.10
2019-02-02T07:07:40.746Z,29.90
2019-02-02T07:10:43.320Z,28.63
2019-02-02T07:13:45.915Z,29.40
2019-02-02T07:16:48.536Z,30.00
2019-02-02T07:19:51.149Z,30.40
2019-02-02T07:22:53.875Z,29.77
2019-02-02T07:25:56.583Z,28.47
2019-02-02T07:28:59.265Z,30.60
2019-02-02T07:32:01.930Z,29.70
2019-02-02T07:35:05.740Z,27.70
2019-02-02T07:38:08.311Z,29.47
2019-02-02T07:41:11.141Z,30.63
2019-02-02T07:44:13.854Z,32.27
2019-02-02T07:47:16.541Z,30.90
2019-02-02T07:50:19.585Z,30.50
2019-02-02T07:53:22.310Z,31.30
2019-02-02T07:56:24.931Z,30.83
2019-02-02T07:59:27.517Z,30.87
2019-02-02T08:02:30.477Z,31.63
2019-02-02T08:05:33.226Z,29.80
2019-02-02T08:08:35.778Z,30.60
2019-02-02T08:11:38.495Z,31.20
2019-02-02T08:14:41.160Z,31.47
2019-02-02T08:17:43.832Z,31.73
2019-02-02T08:20:46.412Z,29.37
2019-02-02T08:23:49.101Z,32.00
2019-02-02T08:26:51.705Z,32.43
2019-02-02T08:29:54.344Z,29.67
2019-02-02T08:32:57.220Z,31.20
2019-02-02T08:36:03.989Z,29.00
2019-02-02T08:39:07.882Z,31.33
2019-02-02T08:42:10.501Z,31.17
2019-02-02T08:45:13.684Z,31.80
2019-02-02T08:48:17.182Z,31.00
2019-02-02T08:51:19.957Z,31.63
2019-02-02T08:54:23.000Z,30.53
2019-02-02T08:57:25.708Z,31.60
2019-02-02T09:00:28.384Z,31.47
2019-02-02T09:03:31.213Z,30.93
2019-02-02T09:06:39.208Z,30.27
2019-02-02T09:09:38.486Z,31.90
2019-02-02T09:12:41.067Z,31.23
2019-02-02T09:15:43.792Z,31.63
2019-02-02T09:18:46.472Z,30.97
2019-02-02T09:21:49.252Z,31.50
2019-02-02T09:24:52.108Z,33.73
2019-02-02T09:27:55.030Z,33.33
2019-02-02T09:30:57.586Z,31.37
2019-02-02T09:34:00.399Z,35.77
2019-02-02T09:37:03.614Z,32.60
2019-02-02T09:40:07.120Z,33.93
2019-02-02T09:43:09.711Z,33.23
2019-02-02T09:46:12.361Z,32.47
2019-02-02T09:49:15.003Z,34.20
2019-02-02T09:52:17.613Z,32.03
2019-02-02T09:55:22.078Z,31.70
2019-02-02T09:58:24.750Z,31.60
2019-02-02T10:01:28.189Z,33.40
2019-02-02T10:04:30.986Z,32.67
2019-02-02T10:07:33.775Z,34.00
2019-02-02T10:10:36.429Z,33.47
2019-02-02T10:13:38.995Z,32.60
2019-02-02T10:16:41.756Z,31.57
2019-02-02T10:19:44.366Z,35.23
2019-02-02T10:22:47.125Z,34.60
2019-02-02T10:25:49.897Z,32.80
2019-02-02T10:28:52.561Z,33.10
2019-02-02T10:31:55.266Z,32.90
2019-02-02T10:34:57.875Z,34.03
2019-02-02T10:38:00.783Z,33.10
2019-02-02T10:41:03.412Z,34.90
2019-02-02T10:44:05.986Z,34.83
2019-02-02T10:47:08.780Z,33.20
2019-02-02T10:50:14.417Z,34.67
2019-02-02T10:53:21.315Z,35.77
2019-02-02T10:56:21.695Z,34.80
2019-02-02T10:59:24.410Z,34.50
2019-02-02T11:02:27.030Z,34.40
2019-02-02T11:05:29.692Z,33.97
2019-02-02T11:08:32.452Z,36.83
2019-02-02T11:11:36.043Z,33.83
2019-02-02T11:14:38.861Z,34.43
2019-02-02T11:17:41.544Z,34.33
2019-02-02T11:20:45.338Z,34.73
2019-02-02T11:23:48.030Z,34.00
2019-02-02T11:26:53.875Z,32.90
2019-02-02T11:29:56.701Z,34.00
2019-02-02T11:32:59.361Z,34.73
2019-02-02T11:36:02.005Z,36.13
2019-02-02T11:39:05.505Z,34.27
2019-02-02T11:42:09.284Z,36.67
2019-02-02T11:45:12.107Z,35.23
2019-02-02T11:48:15.033Z,35.33
2019-02-02T11:51:18.115Z,33.97
2019-02-02T11:54:20.881Z,38.47
2019-02-02T11:57:23.574Z,36.27
2019-02-02T12:00:28.618Z,36.30
2019-02-02T12:03:31.571Z,37.80
2019-02-02T12:06:34.291Z,36.60
2019-02-02T12:09:37.051Z,35.17
2019-02-02T12:12:42.127Z,37.33
2019-02-02T12:15:44.275Z,36.87
2019-02-02T12:18:46.900Z,38.50
2019-02-02T12:21:49.476Z,37.10
2019-02-02T12:24:53.681Z,38.10
2019-02-02T12:27:56.630Z,38.00
2019-02-02T12:30:59.311Z,36.27
2019-02-02T12:34:02.055Z,37.67
2019-02-02T12:37:04.720Z,37.03
2019-02-02T12:40:08.748Z,38.00
2019-02-02T12:43:11.815Z,36.70
2019-02-02T12:46:14.520Z,37.47
2019-02-02T12:49:17.134Z,37.00
2019-02-02T12:52:19.751Z,38.50
2019-02-02T12:55:22.485Z,35.70
2019-02-02T12:58:25.120Z,35.97
2019-02-02T13:01:27.874Z,37.33
2019-02-02T13:04:30.625Z,38.03
2019-02-02T13:07:33.492Z,38.07
2019-02-02T13:10:36.256Z,38.73
2019-02-02T13:13:38.871Z,39.90
2019-02-02T13:16:41.559Z,36.50
2019-02-02T13:19:44.151Z,39.93
2019-02-02T13:22:46.850Z,39.07
2019-02-02T13:25:49.489Z,39.80
2019-02-02T13:28:55.093Z,40.97
2019-02-02T13:31:56.666Z,39.20
2019-02-02T13:34:59.280Z,40.57
2019-02-02T13:38:02.075Z,37.37
2019-02-02T13:41:04.886Z,40.00
2019-02-02T13:44:07.538Z,40.53
2019-02-02T13:47:10.193Z,41.03
2019-02-02T13:50:14.145Z,41.70
2019-02-02T13:53:16.939Z,40.83
2019-02-02T13:56:19.612Z,42.97
2019-02-02T13:59:22.275Z,43.47
2019-02-02T14:02:25.014Z,42.37
2019-02-02T14:05:27.914Z,42.57
2019-02-02T14:08:30.691Z,42.23
2019-02-02T14:11:33.265Z,41.63
2019-02-02T14:14:35.854Z,42.10
2019-02-02T14:17:38.429Z,42.80
2019-02-02T14:20:41.279Z,43.63
2019-02-02T14:23:43.917Z,44.33
2019-02-02T14:26:46.490Z,44.37
2019-02-02T14:29:49.096Z,43.53
2019-02-02T14:32:54.662Z,42.87
2019-02-02T14:35:56.316Z,42.80
2019-02-02T14:38:59.009Z,46.47
2019-02-02T14:42:01.685Z,45.90
2019-02-02T14:45:06.299Z,45.27
2019-02-02T14:48:08.885Z,46.97
2019-02-02T14:51:11.583Z,47.97
2019-02-02T14:54:14.247Z,48.10
2019-02-02T14:57:18.071Z,45.47
2019-02-02T15:00:22.746Z,48.87
2019-02-02T15:03:26.301Z,46.50
2019-02-02T15:06:29.195Z,49.20
2019-02-02T15:09:32.015Z,48.63
2019-02-02T15:12:37.003Z,47.10
2019-02-02T15:15:39.216Z,46.67
2019-02-02T15:18:41.840Z,45.37
2019-02-02T15:21:44.602Z,45.30
2019-02-02T15:24:47.249Z,46.13
2019-02-02T15:27:49.846Z,48.40
2019-02-02T15:30:52.490Z,43.97
2019-02-02T15:33:55.171Z,46.70
2019-02-02T15:36:57.926Z,44.60
2019-02-02T15:40:00.574Z,46.00
2019-02-02T15:43:03.932Z,47.80
2019-02-02T15:46:06.632Z,45.30
2019-02-02T15:49:09.328Z,43.70
2019-02-02T15:52:12.255Z,43.43
2019-02-02T15:55:16.610Z,46.87
2019-02-02T15:58:19.262Z,47.00
2019-02-02T16:01:21.871Z,47.40
2019-02-02T16:04:24.529Z,46.10
2019-02-02T16:07:27.294Z,45.07
2019-02-02T16:10:30.603Z,46.30
2019-02-02T16:13:33.298Z,45.10
2019-02-02T16:16:35.921Z,42.47
2019-02-02T16:19:38.663Z,45.97
2019-02-02T16:22:41.407Z,43.57
2019-02-02T16:25:44.082Z,44.60
2019-02-02T16:28:46.850Z,43.47
2019-02-02T16:31:49.544Z,48.10
2019-02-02T16:34:53.023Z,46.63
2019-02-02T16:37:55.739Z,45.30
2019-02-02T16:40:58.376Z,46.77
2019-02-02T16:44:00.919Z,44.97
2019-02-02T16:47:03.635Z,47.80
2019-02-02T16:50:08.425Z,45.77
2019-02-02T16:53:11.054Z,46.67
2019-02-02T16:56:13.785Z,45.60
2019-02-02T16:59:16.473Z,45.10
2019-02-02T17:02:19.061Z,44.10
2019-02-02T17:05:21.770Z,43.87
2019-02-02T17:08:24.496Z,45.40
2019-02-02T17:11:29.369Z,44.57
2019-02-02T17:14:32.105Z,46.57
2019-02-02T17:17:35.249Z,45.27
2019-02-02T17:20:40.196Z,46.97
2019-02-02T17:23:43.083Z,47.30
2019-02-02T17:26:45.784Z,48.27
2019-02-02T17:29:48.530Z,48.23
2019-02-02T17:32:52.645Z,46.50
2019-02-02T17:35:55.384Z,45.80
2019-02-02T17:38:58.093Z,47.40
2019-02-02T17:42:03.740Z,44.40
2019-02-02T17:45:07.256Z,45.63
2019-02-02T17:48:12.902Z,44.47
2019-02-02T17:51:15.351Z,44.70
2019-02-02T17:54:18.031Z,46.50
2019-02-02T17:57:20.680Z,43.97
2019-02-02T18:00:47.989Z,46.67
2019-02-02T18:03:52.850Z,45.40
2019-02-02T18:06:55.649Z,44.77
2019-02-02T18:09:58.319Z,46.40
2019-02-02T18:13:00.859Z,50.13
2019-02-02T18:16:03.530Z,46.00
2019-02-02T18:19:06.096Z,45.57
2019-02-02T18:22:08.684Z,47.87
2019-02-02T18:25:12.419Z,45.53
2019-02-02T18:28:15.240Z,48.67
2019-02-02T18:31:17.817Z,48.80
2019-02-02T18:34:20.544Z,47.80
2019-02-02T18:37:23.318Z,49.50
2019-02-02T18:40:26.046Z,47.17
2019-02-02T18:43:28.926Z,48.73
2019-02-02T18:46:31.622Z,49.00
2019-02-02T18:49:34.391Z,51.40
2019-02-02T18:52:37.055Z,54.87
2019-02-02T18:55:59.420Z,51.30
2019-02-02T18:59:02.193Z,50.80
2019-02-02T19:02:05.009Z,49.37
2019-02-02T19:05:07.934Z,46.10
2019-02-02T19:08:10.776Z,48.40
2019-02-02T19:11:13.545Z,49.77
2019-02-02T19:14:16.293Z,49.50
2019-02-02T19:17:18.944Z,50.37
2019-02-02T19:20:21.791Z,51.83
2019-02-02T19:23:25.647Z,52.40
2019-02-02T19:26:28.370Z,50.67
2019-02-02T19:29:30.975Z,51.47
2019-02-02T19:32:33.736Z,51.70
2019-02-02T19:35:36.418Z,53.97
2019-02-02T19:38:39.116Z,50.60
2019-02-02T19:41:41.874Z,51.60
2019-02-02T19:44:44.643Z,53.27
2019-02-02T19:47:47.252Z,53.10
2019-02-02T19:50:49.983Z,54.00
2019-02-02T19:53:52.573Z,53.10
2019-02-02T19:56:55.311Z,55.07
2019-02-02T19:59:58.109Z,52.97
2019-02-02T20:03:01.131Z,54.50
2019-02-02T20:06:04.206Z,55.17
2019-02-02T20:09:08.131Z,58.60
2019-02-02T20:12:10.723Z,54.57
2019-02-02T20:15:15.275Z,53.53
2019-02-02T20:18:17.944Z,53.10
2019-02-02T20:21:20.570Z,53.57
2019-02-02T20:24:23.253Z,53.87
2019-02-02T20:27:25.998Z,56.40
2019-02-02T20:30:29.771Z,55.10
2019-02-02T20:33:32.586Z,54.93
2019-02-02T20:36:35.195Z,55.10
2019-02-02T20:39:38.830Z,53.53
2019-02-02T20:42:41.519Z,54.23
2019-02-02T20:45:44.210Z,53.27
2019-02-02T20:48:46.869Z,52.87
2019-02-02T20:51:49.656Z,53.60
2019-02-02T20:54:52.380Z,54.00
2019-02-02T20:57:55.389Z,54.67
2019-02-02T21:00:58.117Z,55.17
2019-02-02T21:04:00.839Z,55.47
2019-02-02T21:07:03.709Z,55.67
2019-02-02T21:10:08.288Z,53.13
2019-02-02T21:13:11.439Z,55.67
2019-02-02T21:16:14.165Z,54.80
2019-02-02T21:19:16.988Z,52.10
2019-02-02T21:22:21.694Z,54.63
2019-02-02T21:25:26.094Z,53.57
2019-02-02T21:28:29.701Z,56.70
2019-02-02T21:31:32.532Z,53.33
2019-02-02T21:34:36.149Z,51.70
2019-02-02T21:37:38.891Z,55.20
2019-02-02T21:40:41.565Z,54.67
2019-02-02T21:43:44.220Z,50.23
2019-02-02T21:46:46.814Z,52.60
2019-02-02T21:49:49.411Z,52.40
2019-02-02T21:52:52.490Z,53.60
2019-02-02T21:55:55.326Z,50.13
2019-02-02T21:58:58.132Z,51.43
2019-02-02T22:02:00.817Z,51.00
2019-02-02T22:05:04.530Z,50.80
2019-02-02T22:08:08.354Z,51.67
2019-02-02T22:11:14.431Z,52.20
2019-02-02T22:14:17.078Z,51.07
2019-02-02T22:17:19.834Z,51.97
2019-02-02T22:20:22.791Z,51.67
2019-02-02T22:23:25.530Z,52.37
2019-02-02T22:26:28.155Z,52.90
2019-02-02T22:29:30.999Z,51.00
2019-02-02T22:32:33.723Z,48.83
2019-02-02T22:35:36.410Z,50.43
2019-02-02T22:38:39.030Z,51.80
2019-02-02T22:41:41.789Z,51.70
2019-02-02T22:44:44.559Z,49.80
2019-02-02T22:47:47.731Z,49.80
2019-02-02T22:50:50.428Z,54.30
2019-02-02T22:53:53.025Z,51.40
2019-02-02T22:56:55.609Z,50.67
2019-02-02T22:59:58.497Z,53.10
2019-02-02T23:03:01.487Z,52.90
2019-02-02T23:06:47.808Z,50.43
2019-02-02T23:10:43.686Z,52.13
2019-02-02T23:14:24.513Z,50.53
2019-02-02T23:17:27.140Z,52.80
2019-02-02T23:20:29.959Z,54.90
2019-02-02T23:23:32.703Z,51.17
2019-02-02T23:26:36.594Z,52.67
2019-02-02T23:29:39.558Z,53.63
2019-02-02T23:32:42.292Z,54.77
2019-02-02T23:35:44.996Z,52.10
2019-02-02T23:38:47.973Z,53.13
2019-02-02T23:41:50.853Z,50.03
2019-02-02T23:44:53.542Z,51.17
2019-02-02T23:47:56.422Z,49.50
2019-02-02T23:50:59.074Z,50.03
2019-02-02T23:54:01.748Z,51.00
2019-02-02T23:57:04.734Z,52.10
